sensor_id;sensor_type;location;lat;lon;timestamp;P1;durP1;ratioP1;P2;durP2;ratioP2
1625;SDS011;806;48.770;9.156;2023-05-08T00:00:31;3.95;;;2.85;;
1625;SDS011;806;48.770;9.156;2023-05-08T00:02:58;3.70;;;3.08;;
1625;SDS011;806;48.770;9.156;2023-05-08T00:05:25;3.95;;;3.45;;
1625;SDS011;806;48.770;9.156;2023-05-08T00:07:53;4.43;;;4.13;;
1625;SDS011;806;48.770;9.156;2023-05-08T00:10:25;4.60;;;4.20;;
1625;SDS011;806;48.770;9.156;2023-05-08T00:12:52;3.97;;;3.58;;
1625;SDS011;806;48.770;9.156;2023-05-08T00:15:20;6.73;;;5.50;;
1625;SDS011;806;48.770;9.156;2023-05-08T00:17:47;6.55;;;5.95;;
1625;SDS011;806;48.770;9.156;2023-05-08T00:20:14;6.13;;;5.53;;
1625;SDS011;806;48.770;9.156;2023-05-08T00:22:41;6.00;;;4.90;;
1625;SDS011;806;48.770;9.156;2023-05-08T00:25:09;6.20;;;4.85;;
1625;SDS011;806;48.770;9.156;2023-05-08T00:27:36;6.05;;;5.55;;
1625;SDS011;806;48.770;9.156;2023-05-08T00:30:04;5.60;;;5.10;;
1625;SDS011;806;48.770;9.156;2023-05-08T00:32:32;4.45;;;4.05;;
1625;SDS011;806;48.770;9.156;2023-05-08T00:34:59;5.00;;;3.63;;
1625;SDS011;806;48.770;9.156;2023-05-08T00:37:26;4.63;;;4.22;;
1625;SDS011;806;48.770;9.156;2023-05-08T00:39:53;4.45;;;3.92;;
1625;SDS011;806;48.770;9.156;2023-05-08T00:42:21;4.32;;;3.92;;
1625;SDS011;806;48.770;9.156;2023-05-08T00:44:48;5.95;;;4.60;;
1625;SDS011;806;48.770;9.156;2023-05-08T00:47:15;4.78;;;2.92;;
1625;SDS011;806;48.770;9.156;2023-05-08T00:49:42;3.80;;;3.40;;
1625;SDS011;806;48.770;9.156;2023-05-08T00:52:09;3.83;;;2.70;;
1625;SDS011;806;48.770;9.156;2023-05-08T00:54:36;3.90;;;3.50;;
1625;SDS011;806;48.770;9.156;2023-05-08T00:57:05;4.60;;;3.55;;
1625;SDS011;806;48.770;9.156;2023-05-08T00:59:35;3.65;;;2.47;;
1625;SDS011;806;48.770;9.156;2023-05-08T01:02:02;3.35;;;2.55;;
1625;SDS011;806;48.770;9.156;2023-05-08T01:04:30;2.90;;;2.47;;
1625;SDS011;806;48.770;9.156;2023-05-08T01:06:58;2.60;;;2.17;;
1625;SDS011;806;48.770;9.156;2023-05-08T01:09:26;2.58;;;2.13;;
1625;SDS011;806;48.770;9.156;2023-05-08T01:11:54;1.90;;;1.60;;
1625;SDS011;806;48.770;9.156;2023-05-08T01:14:28;2.30;;;1.55;;
1625;SDS011;806;48.770;9.156;2023-05-08T01:17:08;2.97;;;1.63;;
1625;SDS011;806;48.770;9.156;2023-05-08T01:19:50;2.90;;;2.00;;
1625;SDS011;806;48.770;9.156;2023-05-08T01:22:29;3.00;;;1.80;;
1625;SDS011;806;48.770;9.156;2023-05-08T01:25:20;2.13;;;1.40;;
1625;SDS011;806;48.770;9.156;2023-05-08T01:28:27;3.00;;;2.17;;
1625;SDS011;806;48.770;9.156;2023-05-08T01:31:14;3.63;;;1.60;;
1625;SDS011;806;48.770;9.156;2023-05-08T01:33:52;2.30;;;1.65;;
1625;SDS011;806;48.770;9.156;2023-05-08T01:36:28;2.65;;;1.83;;
1625;SDS011;806;48.770;9.156;2023-05-08T01:39:00;3.10;;;2.40;;
1625;SDS011;806;48.770;9.156;2023-05-08T01:41:35;3.47;;;2.20;;
1625;SDS011;806;48.770;9.156;2023-05-08T01:44:07;3.50;;;2.00;;
1625;SDS011;806;48.770;9.156;2023-05-08T01:46:38;2.80;;;2.60;;
1625;SDS011;806;48.770;9.156;2023-05-08T01:49:10;3.50;;;3.20;;
1625;SDS011;806;48.770;9.156;2023-05-08T01:51:42;2.83;;;2.63;;
1625;SDS011;806;48.770;9.156;2023-05-08T01:54:12;3.00;;;2.30;;
1625;SDS011;806;48.770;9.156;2023-05-08T01:56:41;3.13;;;2.83;;
1625;SDS011;806;48.770;9.156;2023-05-08T01:59:11;4.43;;;3.40;;
1625;SDS011;806;48.770;9.156;2023-05-08T02:01:41;4.60;;;3.33;;
1625;SDS011;806;48.770;9.156;2023-05-08T02:04:12;3.85;;;3.20;;
1625;SDS011;806;48.770;9.156;2023-05-08T02:06:42;4.32;;;3.60;;
1625;SDS011;806;48.770;9.156;2023-05-08T02:09:09;4.55;;;3.22;;
1625;SDS011;806;48.770;9.156;2023-05-08T02:11:38;5.27;;;4.07;;
1625;SDS011;806;48.770;9.156;2023-05-08T02:14:07;6.45;;;4.97;;
1625;SDS011;806;48.770;9.156;2023-05-08T02:16:36;4.93;;;4.00;;
1625;SDS011;806;48.770;9.156;2023-05-08T02:19:07;3.80;;;3.27;;
1625;SDS011;806;48.770;9.156;2023-05-08T02:21:37;4.05;;;3.65;;
1625;SDS011;806;48.770;9.156;2023-05-08T02:24:06;4.80;;;3.65;;
1625;SDS011;806;48.770;9.156;2023-05-08T02:26:34;4.10;;;3.70;;
1625;SDS011;806;48.770;9.156;2023-05-08T02:29:02;6.25;;;5.32;;
1625;SDS011;806;48.770;9.156;2023-05-08T02:31:29;5.22;;;3.50;;
1625;SDS011;806;48.770;9.156;2023-05-08T02:33:57;4.73;;;3.40;;
1625;SDS011;806;48.770;9.156;2023-05-08T02:36:25;3.30;;;2.63;;
1625;SDS011;806;48.770;9.156;2023-05-08T02:38:55;5.65;;;3.42;;
1625;SDS011;806;48.770;9.156;2023-05-08T02:41:27;3.90;;;3.38;;
1625;SDS011;806;48.770;9.156;2023-05-08T02:43:55;3.90;;;3.40;;
1625;SDS011;806;48.770;9.156;2023-05-08T02:46:24;3.50;;;3.20;;
1625;SDS011;806;48.770;9.156;2023-05-08T02:48:57;4.10;;;3.70;;
1625;SDS011;806;48.770;9.156;2023-05-08T02:51:28;5.37;;;4.37;;
1625;SDS011;806;48.770;9.156;2023-05-08T02:54:07;4.45;;;3.92;;
1625;SDS011;806;48.770;9.156;2023-05-08T02:56:36;5.93;;;4.03;;
1625;SDS011;806;48.770;9.156;2023-05-08T02:59:16;5.00;;;4.50;;
1625;SDS011;806;48.770;9.156;2023-05-08T03:01:48;6.10;;;5.13;;
1625;SDS011;806;48.770;9.156;2023-05-08T03:04:23;6.30;;;5.70;;
1625;SDS011;806;48.770;9.156;2023-05-08T03:06:55;5.97;;;5.38;;
1625;SDS011;806;48.770;9.156;2023-05-08T03:09:25;6.32;;;5.72;;
1625;SDS011;806;48.770;9.156;2023-05-08T03:12:02;5.95;;;5.22;;
1625;SDS011;806;48.770;9.156;2023-05-08T03:14:34;5.45;;;4.95;;
1625;SDS011;806;48.770;9.156;2023-05-08T03:17:12;6.53;;;5.45;;
1625;SDS011;806;48.770;9.156;2023-05-08T03:19:41;7.50;;;6.60;;
1625;SDS011;806;48.770;9.156;2023-05-08T03:22:12;10.00;;;7.13;;
1625;SDS011;806;48.770;9.156;2023-05-08T03:24:43;10.25;;;6.13;;
1625;SDS011;806;48.770;9.156;2023-05-08T03:27:12;8.40;;;7.20;;
1625;SDS011;806;48.770;9.156;2023-05-08T03:29:41;8.80;;;6.72;;
1625;SDS011;806;48.770;9.156;2023-05-08T03:32:10;7.25;;;6.45;;
1625;SDS011;806;48.770;9.156;2023-05-08T03:34:39;7.00;;;6.10;;
1625;SDS011;806;48.770;9.156;2023-05-08T03:37:06;7.10;;;6.37;;
1625;SDS011;806;48.770;9.156;2023-05-08T03:39:34;8.70;;;6.07;;
1625;SDS011;806;48.770;9.156;2023-05-08T03:42:02;6.82;;;6.05;;
1625;SDS011;806;48.770;9.156;2023-05-08T03:44:29;5.03;;;4.53;;
1625;SDS011;806;48.770;9.156;2023-05-08T03:46:58;6.00;;;5.30;;
1625;SDS011;806;48.770;9.156;2023-05-08T03:49:27;6.00;;;4.67;;
1625;SDS011;806;48.770;9.156;2023-05-08T03:51:56;4.50;;;3.88;;
1625;SDS011;806;48.770;9.156;2023-05-08T03:54:24;4.38;;;3.42;;
1625;SDS011;806;48.770;9.156;2023-05-08T03:56:52;3.88;;;3.55;;
1625;SDS011;806;48.770;9.156;2023-05-08T03:59:23;3.40;;;3.10;;
1625;SDS011;806;48.770;9.156;2023-05-08T04:01:58;5.05;;;3.63;;
1625;SDS011;806;48.770;9.156;2023-05-08T04:04:37;4.05;;;3.65;;
1625;SDS011;806;48.770;9.156;2023-05-08T04:07:07;4.30;;;3.83;;
1625;SDS011;806;48.770;9.156;2023-05-08T04:09:38;3.70;;;2.90;;
1625;SDS011;806;48.770;9.156;2023-05-08T04:12:12;5.07;;;3.53;;
1625;SDS011;806;48.770;9.156;2023-05-08T04:14:46;4.28;;;3.60;;
1625;SDS011;806;48.770;9.156;2023-05-08T04:17:16;3.95;;;3.55;;
1625;SDS011;806;48.770;9.156;2023-05-08T04:19:54;4.40;;;4.00;;
1625;SDS011;806;48.770;9.156;2023-05-08T04:22:26;4.72;;;3.55;;
1625;SDS011;806;48.770;9.156;2023-05-08T04:24:54;4.03;;;3.47;;
1625;SDS011;806;48.770;9.156;2023-05-08T04:27:26;4.10;;;3.28;;
1625;SDS011;806;48.770;9.156;2023-05-08T04:29:55;4.37;;;3.90;;
1625;SDS011;806;48.770;9.156;2023-05-08T04:32:23;5.00;;;4.50;;
1625;SDS011;806;48.770;9.156;2023-05-08T04:34:52;5.10;;;4.20;;
1625;SDS011;806;48.770;9.156;2023-05-08T04:37:21;4.18;;;3.70;;
1625;SDS011;806;48.770;9.156;2023-05-08T04:39:52;4.88;;;3.55;;
1625;SDS011;806;48.770;9.156;2023-05-08T04:42:19;4.80;;;4.40;;
1625;SDS011;806;48.770;9.156;2023-05-08T04:44:48;5.53;;;4.77;;
1625;SDS011;806;48.770;9.156;2023-05-08T04:47:16;4.70;;;4.30;;
1625;SDS011;806;48.770;9.156;2023-05-08T04:49:44;4.70;;;4.20;;
1625;SDS011;806;48.770;9.156;2023-05-08T04:52:11;5.00;;;4.23;;
1625;SDS011;806;48.770;9.156;2023-05-08T04:54:38;4.03;;;3.40;;
1625;SDS011;806;48.770;9.156;2023-05-08T04:57:05;5.50;;;4.05;;
1625;SDS011;806;48.770;9.156;2023-05-08T04:59:32;4.50;;;3.90;;
1625;SDS011;806;48.770;9.156;2023-05-08T05:01:59;4.82;;;3.60;;
1625;SDS011;806;48.770;9.156;2023-05-08T05:04:28;4.13;;;3.70;;
1625;SDS011;806;48.770;9.156;2023-05-08T05:06:55;3.75;;;3.42;;
1625;SDS011;806;48.770;9.156;2023-05-08T05:09:22;3.53;;;3.17;;
1625;SDS011;806;48.770;9.156;2023-05-08T05:11:49;3.75;;;3.38;;
1625;SDS011;806;48.770;9.156;2023-05-08T05:14:16;4.07;;;3.28;;
1625;SDS011;806;48.770;9.156;2023-05-08T05:16:44;3.60;;;3.00;;
1625;SDS011;806;48.770;9.156;2023-05-08T05:19:14;4.28;;;3.20;;
1625;SDS011;806;48.770;9.156;2023-05-08T05:21:43;5.15;;;4.50;;
1625;SDS011;806;48.770;9.156;2023-05-08T05:24:10;3.90;;;3.07;;
1625;SDS011;806;48.770;9.156;2023-05-08T05:26:37;3.90;;;3.20;;
1625;SDS011;806;48.770;9.156;2023-05-08T05:29:04;4.40;;;3.40;;
1625;SDS011;806;48.770;9.156;2023-05-08T05:31:31;4.10;;;3.40;;
1625;SDS011;806;48.770;9.156;2023-05-08T05:33:58;4.40;;;3.47;;
1625;SDS011;806;48.770;9.156;2023-05-08T05:36:25;4.18;;;3.78;;
1625;SDS011;806;48.770;9.156;2023-05-08T05:38:53;4.95;;;4.07;;
1625;SDS011;806;48.770;9.156;2023-05-08T05:41:20;5.32;;;4.82;;
1625;SDS011;806;48.770;9.156;2023-05-08T05:43:48;4.88;;;4.47;;
1625;SDS011;806;48.770;9.156;2023-05-08T05:46:15;3.80;;;3.40;;
1625;SDS011;806;48.770;9.156;2023-05-08T05:48:42;4.32;;;3.92;;
1625;SDS011;806;48.770;9.156;2023-05-08T05:51:09;3.50;;;3.15;;
1625;SDS011;806;48.770;9.156;2023-05-08T05:53:36;4.22;;;3.60;;
1625;SDS011;806;48.770;9.156;2023-05-08T05:56:05;3.77;;;3.47;;
1625;SDS011;806;48.770;9.156;2023-05-08T05:58:32;3.83;;;3.43;;
1625;SDS011;806;48.770;9.156;2023-05-08T06:00:59;3.70;;;2.70;;
1625;SDS011;806;48.770;9.156;2023-05-08T06:03:26;4.20;;;3.30;;
1625;SDS011;806;48.770;9.156;2023-05-08T06:05:53;4.55;;;3.63;;
1625;SDS011;806;48.770;9.156;2023-05-08T06:08:20;5.65;;;4.30;;
1625;SDS011;806;48.770;9.156;2023-05-08T06:10:47;3.30;;;3.00;;
1625;SDS011;806;48.770;9.156;2023-05-08T06:13:16;4.50;;;3.50;;
1625;SDS011;806;48.770;9.156;2023-05-08T06:15:44;4.00;;;3.58;;
1625;SDS011;806;48.770;9.156;2023-05-08T06:18:11;3.10;;;2.67;;
1625;SDS011;806;48.770;9.156;2023-05-08T06:20:38;3.63;;;3.33;;
1625;SDS011;806;48.770;9.156;2023-05-08T06:23:05;5.03;;;3.10;;
1625;SDS011;806;48.770;9.156;2023-05-08T06:25:32;4.45;;;2.60;;
1625;SDS011;806;48.770;9.156;2023-05-08T06:27:59;3.30;;;2.50;;
1625;SDS011;806;48.770;9.156;2023-05-08T06:30:27;4.15;;;3.08;;
1625;SDS011;806;48.770;9.156;2023-05-08T06:32:54;3.40;;;3.10;;
1625;SDS011;806;48.770;9.156;2023-05-08T06:35:21;3.73;;;3.33;;
1625;SDS011;806;48.770;9.156;2023-05-08T06:37:48;3.80;;;3.35;;
1625;SDS011;806;48.770;9.156;2023-05-08T06:40:15;2.90;;;2.20;;
1625;SDS011;806;48.770;9.156;2023-05-08T06:42:43;3.95;;;3.63;;
1625;SDS011;806;48.770;9.156;2023-05-08T06:45:10;3.38;;;3.08;;
1625;SDS011;806;48.770;9.156;2023-05-08T06:47:38;3.35;;;3.03;;
1625;SDS011;806;48.770;9.156;2023-05-08T06:50:06;3.50;;;3.20;;
1625;SDS011;806;48.770;9.156;2023-05-08T06:52:33;4.00;;;3.60;;
1625;SDS011;806;48.770;9.156;2023-05-08T06:55:00;4.60;;;2.50;;
1625;SDS011;806;48.770;9.156;2023-05-08T06:57:27;4.45;;;3.40;;
1625;SDS011;806;48.770;9.156;2023-05-08T06:59:54;4.03;;;3.60;;
1625;SDS011;806;48.770;9.156;2023-05-08T07:02:21;3.20;;;2.90;;
1625;SDS011;806;48.770;9.156;2023-05-08T07:04:50;3.85;;;3.45;;
1625;SDS011;806;48.770;9.156;2023-05-08T07:07:17;3.38;;;2.90;;
1625;SDS011;806;48.770;9.156;2023-05-08T07:09:44;3.58;;;3.15;;
1625;SDS011;806;48.770;9.156;2023-05-08T07:12:11;3.17;;;2.55;;
1625;SDS011;806;48.770;9.156;2023-05-08T07:14:40;4.30;;;2.50;;
1625;SDS011;806;48.770;9.156;2023-05-08T07:17:07;3.58;;;2.88;;
1625;SDS011;806;48.770;9.156;2023-05-08T07:19:35;2.80;;;2.55;;
1625;SDS011;806;48.770;9.156;2023-05-08T07:22:04;3.43;;;3.13;;
1625;SDS011;806;48.770;9.156;2023-05-08T07:24:31;3.50;;;3.20;;
1625;SDS011;806;48.770;9.156;2023-05-08T07:26:58;3.42;;;3.10;;
1625;SDS011;806;48.770;9.156;2023-05-08T07:29:25;3.50;;;3.20;;
1625;SDS011;806;48.770;9.156;2023-05-08T07:31:52;2.53;;;2.30;;
1625;SDS011;806;48.770;9.156;2023-05-08T07:34:20;3.20;;;2.90;;
1625;SDS011;806;48.770;9.156;2023-05-08T07:36:47;4.70;;;3.95;;
1625;SDS011;806;48.770;9.156;2023-05-08T07:39:15;4.20;;;3.80;;
1625;SDS011;806;48.770;9.156;2023-05-08T07:41:42;4.00;;;3.60;;
1625;SDS011;806;48.770;9.156;2023-05-08T07:44:09;3.13;;;2.83;;
1625;SDS011;806;48.770;9.156;2023-05-08T07:46:36;2.80;;;2.60;;
1625;SDS011;806;48.770;9.156;2023-05-08T07:49:04;4.60;;;3.07;;
1625;SDS011;806;48.770;9.156;2023-05-08T07:51:31;3.90;;;3.50;;
1625;SDS011;806;48.770;9.156;2023-05-08T07:53:58;3.80;;;3.25;;
1625;SDS011;806;48.770;9.156;2023-05-08T07:56:26;2.80;;;2.60;;
1625;SDS011;806;48.770;9.156;2023-05-08T07:58:53;3.65;;;3.25;;
1625;SDS011;806;48.770;9.156;2023-05-08T08:01:20;4.47;;;4.05;;
1625;SDS011;806;48.770;9.156;2023-05-08T08:03:48;4.20;;;3.30;;
1625;SDS011;806;48.770;9.156;2023-05-08T08:06:15;4.07;;;3.67;;
1625;SDS011;806;48.770;9.156;2023-05-08T08:08:43;4.20;;;3.80;;
1625;SDS011;806;48.770;9.156;2023-05-08T08:11:10;3.50;;;3.20;;
1625;SDS011;806;48.770;9.156;2023-05-08T08:13:38;3.60;;;3.30;;
1625;SDS011;806;48.770;9.156;2023-05-08T08:16:05;3.30;;;2.60;;
1625;SDS011;806;48.770;9.156;2023-05-08T08:18:33;4.72;;;2.65;;
1625;SDS011;806;48.770;9.156;2023-05-08T08:21:03;2.20;;;1.90;;
1625;SDS011;806;48.770;9.156;2023-05-08T08:23:30;2.70;;;2.50;;
1625;SDS011;806;48.770;9.156;2023-05-08T08:25:58;1.90;;;1.50;;
1625;SDS011;806;48.770;9.156;2023-05-08T08:28:25;1.70;;;1.30;;
1625;SDS011;806;48.770;9.156;2023-05-08T08:30:53;1.67;;;1.25;;
1625;SDS011;806;48.770;9.156;2023-05-08T08:33:20;1.60;;;1.20;;
1625;SDS011;806;48.770;9.156;2023-05-08T08:35:47;2.10;;;1.50;;
1625;SDS011;806;48.770;9.156;2023-05-08T08:38:14;1.80;;;1.30;;
1625;SDS011;806;48.770;9.156;2023-05-08T08:40:41;2.30;;;1.40;;
1625;SDS011;806;48.770;9.156;2023-05-08T08:43:08;2.05;;;1.42;;
1625;SDS011;806;48.770;9.156;2023-05-08T08:45:36;2.25;;;1.50;;
1625;SDS011;806;48.770;9.156;2023-05-08T08:48:05;3.72;;;2.30;;
1625;SDS011;806;48.770;9.156;2023-05-08T08:50:36;3.70;;;1.67;;
1625;SDS011;806;48.770;9.156;2023-05-08T08:53:09;2.10;;;1.30;;
1625;SDS011;806;48.770;9.156;2023-05-08T08:55:38;1.92;;;1.40;;
1625;SDS011;806;48.770;9.156;2023-05-08T08:58:11;2.00;;;1.50;;
1625;SDS011;806;48.770;9.156;2023-05-08T09:00:42;2.50;;;1.83;;
1625;SDS011;806;48.770;9.156;2023-05-08T09:03:10;2.17;;;1.95;;
1625;SDS011;806;48.770;9.156;2023-05-08T09:05:37;2.50;;;1.50;;
1625;SDS011;806;48.770;9.156;2023-05-08T09:08:05;2.28;;;1.40;;
1625;SDS011;806;48.770;9.156;2023-05-08T09:10:33;2.07;;;1.60;;
1625;SDS011;806;48.770;9.156;2023-05-08T09:13:00;2.60;;;2.00;;
1625;SDS011;806;48.770;9.156;2023-05-08T09:15:28;3.03;;;1.60;;
1625;SDS011;806;48.770;9.156;2023-05-08T09:17:56;3.33;;;2.00;;
1625;SDS011;806;48.770;9.156;2023-05-08T09:20:25;4.77;;;2.10;;
1625;SDS011;806;48.770;9.156;2023-05-08T09:22:52;3.67;;;1.80;;
1625;SDS011;806;48.770;9.156;2023-05-08T09:25:20;2.73;;;2.17;;
1625;SDS011;806;48.770;9.156;2023-05-08T09:27:47;3.27;;;1.83;;
1625;SDS011;806;48.770;9.156;2023-05-08T09:30:14;3.77;;;2.70;;
1625;SDS011;806;48.770;9.156;2023-05-08T09:32:41;3.55;;;2.60;;
1625;SDS011;806;48.770;9.156;2023-05-08T09:35:10;3.63;;;2.03;;
1625;SDS011;806;48.770;9.156;2023-05-08T09:37:38;2.30;;;1.90;;
1625;SDS011;806;48.770;9.156;2023-05-08T09:40:13;3.40;;;2.15;;
1625;SDS011;806;48.770;9.156;2023-05-08T09:42:42;3.20;;;2.70;;
1625;SDS011;806;48.770;9.156;2023-05-08T09:45:09;3.70;;;2.50;;
1625;SDS011;806;48.770;9.156;2023-05-08T09:47:37;3.65;;;2.30;;
1625;SDS011;806;48.770;9.156;2023-05-08T09:50:04;2.10;;;1.80;;
1625;SDS011;806;48.770;9.156;2023-05-08T09:52:33;2.20;;;1.90;;
1625;SDS011;806;48.770;9.156;2023-05-08T09:55:03;4.25;;;2.55;;
1625;SDS011;806;48.770;9.156;2023-05-08T09:57:32;2.40;;;1.90;;
1625;SDS011;806;48.770;9.156;2023-05-08T10:00:03;2.60;;;2.00;;
1625;SDS011;806;48.770;9.156;2023-05-08T10:02:33;3.78;;;1.50;;
1625;SDS011;806;48.770;9.156;2023-05-08T10:05:02;2.92;;;1.60;;
1625;SDS011;806;48.770;9.156;2023-05-08T10:07:31;2.00;;;1.40;;
1625;SDS011;806;48.770;9.156;2023-05-08T10:09:59;2.35;;;1.73;;
1625;SDS011;806;48.770;9.156;2023-05-08T10:12:29;1.80;;;1.30;;
1625;SDS011;806;48.770;9.156;2023-05-08T10:14:57;2.00;;;1.42;;
1625;SDS011;806;48.770;9.156;2023-05-08T10:17:25;1.88;;;1.30;;
1625;SDS011;806;48.770;9.156;2023-05-08T10:19:58;1.48;;;1.30;;
1625;SDS011;806;48.770;9.156;2023-05-08T10:22:28;2.50;;;1.30;;
1625;SDS011;806;48.770;9.156;2023-05-08T10:24:57;1.90;;;1.30;;
1625;SDS011;806;48.770;9.156;2023-05-08T10:27:32;2.03;;;1.30;;
1625;SDS011;806;48.770;9.156;2023-05-08T10:30:04;2.30;;;1.35;;
1625;SDS011;806;48.770;9.156;2023-05-08T10:32:36;1.98;;;1.50;;
1625;SDS011;806;48.770;9.156;2023-05-08T10:35:08;2.28;;;1.30;;
1625;SDS011;806;48.770;9.156;2023-05-08T10:37:37;1.70;;;1.40;;
1625;SDS011;806;48.770;9.156;2023-05-08T10:40:06;2.10;;;1.50;;
1625;SDS011;806;48.770;9.156;2023-05-08T10:42:36;2.00;;;1.20;;
1625;SDS011;806;48.770;9.156;2023-05-08T10:45:04;2.75;;;1.70;;
1625;SDS011;806;48.770;9.156;2023-05-08T10:47:36;2.50;;;1.40;;
1625;SDS011;806;48.770;9.156;2023-05-08T10:50:27;2.13;;;1.30;;
1625;SDS011;806;48.770;9.156;2023-05-08T10:53:06;1.70;;;1.10;;
1625;SDS011;806;48.770;9.156;2023-05-08T10:55:37;1.60;;;1.13;;
1625;SDS011;806;48.770;9.156;2023-05-08T10:58:12;1.50;;;1.27;;
1625;SDS011;806;48.770;9.156;2023-05-08T11:03:42;1.50;;;1.20;;
1625;SDS011;806;48.770;9.156;2023-05-08T11:06:10;1.50;;;1.00;;
1625;SDS011;806;48.770;9.156;2023-05-08T11:08:50;2.72;;;1.20;;
1625;SDS011;806;48.770;9.156;2023-05-08T11:11:28;2.92;;;1.50;;
1625;SDS011;806;48.770;9.156;2023-05-08T11:14:09;1.70;;;1.33;;
1625;SDS011;806;48.770;9.156;2023-05-08T11:19:29;1.70;;;1.10;;
1625;SDS011;806;48.770;9.156;2023-05-08T11:22:12;1.30;;;1.00;;
1625;SDS011;806;48.770;9.156;2023-05-08T11:24:46;1.10;;;0.90;;
1625;SDS011;806;48.770;9.156;2023-05-08T11:27:15;1.10;;;0.90;;
1625;SDS011;806;48.770;9.156;2023-05-08T11:29:44;1.90;;;1.00;;
1625;SDS011;806;48.770;9.156;2023-05-08T11:32:58;1.30;;;1.00;;
1625;SDS011;806;48.770;9.156;2023-05-08T11:35:40;1.50;;;1.10;;
1625;SDS011;806;48.770;9.156;2023-05-08T11:38:19;1.40;;;1.20;;
1625;SDS011;806;48.770;9.156;2023-05-08T11:40:57;1.50;;;1.20;;
1625;SDS011;806;48.770;9.156;2023-05-08T11:43:28;1.73;;;1.20;;
1625;SDS011;806;48.770;9.156;2023-05-08T11:46:16;1.40;;;1.10;;
1625;SDS011;806;48.770;9.156;2023-05-08T11:48:46;1.90;;;1.60;;
1625;SDS011;806;48.770;9.156;2023-05-08T11:51:15;1.83;;;1.40;;
1625;SDS011;806;48.770;9.156;2023-05-08T11:53:44;1.65;;;1.40;;
1625;SDS011;806;48.770;9.156;2023-05-08T11:56:12;1.50;;;1.30;;
1625;SDS011;806;48.770;9.156;2023-05-08T11:58:39;1.60;;;1.40;;
1625;SDS011;806;48.770;9.156;2023-05-08T12:01:06;1.50;;;1.20;;
1625;SDS011;806;48.770;9.156;2023-05-08T12:03:35;2.10;;;1.60;;
1625;SDS011;806;48.770;9.156;2023-05-08T12:06:02;1.80;;;1.40;;
1625;SDS011;806;48.770;9.156;2023-05-08T12:08:29;2.00;;;1.60;;
1625;SDS011;806;48.770;9.156;2023-05-08T12:10:56;1.80;;;1.45;;
1625;SDS011;806;48.770;9.156;2023-05-08T12:13:24;1.95;;;1.70;;
1625;SDS011;806;48.770;9.156;2023-05-08T12:15:53;1.60;;;1.40;;
1625;SDS011;806;48.770;9.156;2023-05-08T12:18:22;2.13;;;1.73;;
1625;SDS011;806;48.770;9.156;2023-05-08T12:20:52;1.83;;;1.58;;
1625;SDS011;806;48.770;9.156;2023-05-08T12:23:21;1.88;;;1.60;;
1625;SDS011;806;48.770;9.156;2023-05-08T12:25:50;2.60;;;1.70;;
1625;SDS011;806;48.770;9.156;2023-05-08T12:28:18;1.70;;;1.60;;
1625;SDS011;806;48.770;9.156;2023-05-08T12:30:46;2.20;;;1.63;;
1625;SDS011;806;48.770;9.156;2023-05-08T12:33:13;2.30;;;1.70;;
1625;SDS011;806;48.770;9.156;2023-05-08T12:35:41;2.20;;;1.70;;
1625;SDS011;806;48.770;9.156;2023-05-08T12:38:10;2.00;;;1.80;;
1625;SDS011;806;48.770;9.156;2023-05-08T12:40:39;2.20;;;1.60;;
1625;SDS011;806;48.770;9.156;2023-05-08T12:43:07;1.60;;;1.30;;
1625;SDS011;806;48.770;9.156;2023-05-08T12:45:36;2.22;;;1.40;;
1625;SDS011;806;48.770;9.156;2023-05-08T12:48:05;1.92;;;1.60;;
1625;SDS011;806;48.770;9.156;2023-05-08T12:50:33;1.50;;;1.30;;
1625;SDS011;806;48.770;9.156;2023-05-08T12:53:01;1.80;;;1.70;;
1625;SDS011;806;48.770;9.156;2023-05-08T12:55:32;1.70;;;1.60;;
1625;SDS011;806;48.770;9.156;2023-05-08T12:58:01;1.70;;;1.20;;
1625;SDS011;806;48.770;9.156;2023-05-08T13:00:33;1.80;;;1.60;;
1625;SDS011;806;48.770;9.156;2023-05-08T13:03:02;1.90;;;1.40;;
1625;SDS011;806;48.770;9.156;2023-05-08T13:05:29;4.40;;;2.00;;
1625;SDS011;806;48.770;9.156;2023-05-08T13:08:00;2.00;;;1.60;;
1625;SDS011;806;48.770;9.156;2023-05-08T13:13:18;4.40;;;1.60;;
1625;SDS011;806;48.770;9.156;2023-05-08T13:15:47;1.95;;;1.60;;
1625;SDS011;806;48.770;9.156;2023-05-08T13:18:15;3.25;;;1.40;;
1625;SDS011;806;48.770;9.156;2023-05-08T13:20:44;2.00;;;1.60;;
1625;SDS011;806;48.770;9.156;2023-05-08T13:23:11;1.80;;;1.50;;
1625;SDS011;806;48.770;9.156;2023-05-08T13:25:39;1.60;;;1.30;;
1625;SDS011;806;48.770;9.156;2023-05-08T13:28:08;2.00;;;1.70;;
1625;SDS011;806;48.770;9.156;2023-05-08T13:30:35;1.80;;;1.60;;
1625;SDS011;806;48.770;9.156;2023-05-08T13:33:03;1.77;;;1.60;;
1625;SDS011;806;48.770;9.156;2023-05-08T13:35:32;2.10;;;1.90;;
1625;SDS011;806;48.770;9.156;2023-05-08T13:38:00;2.30;;;2.10;;
1625;SDS011;806;48.770;9.156;2023-05-08T13:40:27;2.80;;;1.80;;
1625;SDS011;806;48.770;9.156;2023-05-08T13:42:55;4.00;;;3.60;;
1625;SDS011;806;48.770;9.156;2023-05-08T13:45:23;3.88;;;2.90;;
1625;SDS011;806;48.770;9.156;2023-05-08T13:47:51;4.50;;;4.10;;
1625;SDS011;806;48.770;9.156;2023-05-08T13:50:18;4.07;;;3.70;;
1625;SDS011;806;48.770;9.156;2023-05-08T13:52:46;3.38;;;3.00;;
1625;SDS011;806;48.770;9.156;2023-05-08T13:55:14;3.72;;;3.42;;
1625;SDS011;806;48.770;9.156;2023-05-08T13:57:45;4.80;;;4.40;;
1625;SDS011;806;48.770;9.156;2023-05-08T14:00:13;4.57;;;3.90;;
1625;SDS011;806;48.770;9.156;2023-05-08T14:02:42;4.22;;;3.83;;
1625;SDS011;806;48.770;9.156;2023-05-08T14:05:09;4.40;;;4.00;;
1625;SDS011;806;48.770;9.156;2023-05-08T14:07:36;5.40;;;4.90;;
1625;SDS011;806;48.770;9.156;2023-05-08T14:10:03;4.10;;;3.70;;
1625;SDS011;806;48.770;9.156;2023-05-08T14:12:30;4.43;;;3.70;;
1625;SDS011;806;48.770;9.156;2023-05-08T14:15:00;3.40;;;3.10;;
1625;SDS011;806;48.770;9.156;2023-05-08T14:17:27;4.30;;;3.90;;
1625;SDS011;806;48.770;9.156;2023-05-08T14:19:56;5.13;;;4.63;;
1625;SDS011;806;48.770;9.156;2023-05-08T14:22:25;4.10;;;3.80;;
1625;SDS011;806;48.770;9.156;2023-05-08T14:24:53;3.90;;;3.50;;
1625;SDS011;806;48.770;9.156;2023-05-08T14:27:20;5.05;;;4.55;;
1625;SDS011;806;48.770;9.156;2023-05-08T14:29:47;5.43;;;4.93;;
1625;SDS011;806;48.770;9.156;2023-05-08T14:32:14;5.75;;;5.25;;
1625;SDS011;806;48.770;9.156;2023-05-08T14:34:41;6.93;;;6.22;;
1625;SDS011;806;48.770;9.156;2023-05-08T14:37:10;7.47;;;5.80;;
1625;SDS011;806;48.770;9.156;2023-05-08T14:39:37;9.18;;;7.75;;
1625;SDS011;806;48.770;9.156;2023-05-08T14:42:04;7.10;;;6.30;;
1625;SDS011;806;48.770;9.156;2023-05-08T14:44:31;6.97;;;6.28;;
1625;SDS011;806;48.770;9.156;2023-05-08T14:46:58;6.70;;;6.10;;
1625;SDS011;806;48.770;9.156;2023-05-08T14:49:25;7.82;;;7.13;;
1625;SDS011;806;48.770;9.156;2023-05-08T14:51:52;8.30;;;7.50;;
1625;SDS011;806;48.770;9.156;2023-05-08T14:54:20;6.53;;;5.93;;
1625;SDS011;806;48.770;9.156;2023-05-08T14:56:47;6.18;;;5.57;;
1625;SDS011;806;48.770;9.156;2023-05-08T14:59:14;7.23;;;6.40;;
1625;SDS011;806;48.770;9.156;2023-05-08T15:01:41;7.50;;;6.68;;
1625;SDS011;806;48.770;9.156;2023-05-08T15:04:08;7.65;;;6.85;;
1625;SDS011;806;48.770;9.156;2023-05-08T15:06:36;7.13;;;5.30;;
1625;SDS011;806;48.770;9.156;2023-05-08T15:09:05;6.90;;;5.90;;
1625;SDS011;806;48.770;9.156;2023-05-08T15:11:34;7.82;;;7.03;;
1625;SDS011;806;48.770;9.156;2023-05-08T15:14:02;5.90;;;5.30;;
1625;SDS011;806;48.770;9.156;2023-05-08T15:16:29;6.90;;;6.20;;
1625;SDS011;806;48.770;9.156;2023-05-08T15:18:56;7.75;;;6.85;;
1625;SDS011;806;48.770;9.156;2023-05-08T15:21:23;6.50;;;6.00;;
1625;SDS011;806;48.770;9.156;2023-05-08T15:23:51;6.40;;;5.90;;
1625;SDS011;806;48.770;9.156;2023-05-08T15:26:19;7.32;;;6.60;;
1625;SDS011;806;48.770;9.156;2023-05-08T15:28:49;7.20;;;6.50;;
1625;SDS011;806;48.770;9.156;2023-05-08T15:31:16;7.10;;;6.50;;
1625;SDS011;806;48.770;9.156;2023-05-08T15:33:43;6.85;;;6.25;;
1625;SDS011;806;48.770;9.156;2023-05-08T15:36:11;8.40;;;7.43;;
1625;SDS011;806;48.770;9.156;2023-05-08T15:38:39;7.15;;;6.45;;
1625;SDS011;806;48.770;9.156;2023-05-08T15:41:06;6.93;;;5.80;;
1625;SDS011;806;48.770;9.156;2023-05-08T15:43:34;6.30;;;5.70;;
1625;SDS011;806;48.770;9.156;2023-05-08T15:46:04;6.93;;;6.28;;
1625;SDS011;806;48.770;9.156;2023-05-08T15:48:31;6.10;;;5.60;;
1625;SDS011;806;48.770;9.156;2023-05-08T15:50:58;7.10;;;6.40;;